createdAt,value
2023-04-26T00:01:41.791Z,100832.00
2023-04-26T00:04:10.502Z,100832.88
2023-04-26T00:06:38.393Z,100833.66
2023-04-26T00:09:06.749Z,100834.50
2023-04-26T00:11:35.405Z,100822.22
2023-04-26T00:14:03.163Z,100834.47
2023-04-26T00:16:32.299Z,100833.56
2023-04-26T00:19:00.205Z,100839.66
2023-04-26T00:21:28.622Z,100834.38
2023-04-26T00:23:56.631Z,100832.63
2023-04-26T00:26:24.613Z,100836.09
2023-04-26T00:28:54.334Z,100849.09
2023-04-26T00:31:25.210Z,100840.31
2023-04-26T00:33:54.278Z,100841.91
2023-04-26T00:36:22.170Z,100844.53
2023-04-26T00:38:50.286Z,100842.72
2023-04-26T00:41:18.730Z,100841.78
2023-04-26T00:43:51.673Z,100844.34
2023-04-26T00:46:19.500Z,100842.50
2023-04-26T00:48:48.470Z,100843.38
2023-04-26T00:51:17.918Z,100841.53
2023-04-26T00:53:46.212Z,100847.69
2023-04-26T00:56:14.985Z,100838.06
2023-04-26T00:58:43.545Z,100845.88
2023-04-26T01:01:13.549Z,100833.56
2023-04-26T01:03:44.431Z,100842.28
2023-04-26T01:06:13.293Z,100851.81
2023-04-26T01:08:43.890Z,100851.78
2023-04-26T01:11:13.034Z,100848.16
2023-04-26T01:13:45.643Z,100859.41
2023-04-26T01:16:21.144Z,100854.13
2023-04-26T01:18:52.408Z,100852.31
2023-04-26T01:21:22.270Z,100850.47
2023-04-26T01:23:51.389Z,100853.03
2023-04-26T01:26:19.711Z,100846.91
2023-04-26T01:28:49.693Z,100852.03
2023-04-26T01:31:18.400Z,100854.53
2023-04-26T01:33:47.358Z,100858.91
2023-04-26T01:36:16.588Z,100857.97
2023-04-26T01:38:52.515Z,100854.47
2023-04-26T01:41:28.737Z,100856.13
2023-04-26T01:44:02.653Z,100860.47
2023-04-26T01:46:46.885Z,100858.66
2023-04-26T01:49:22.812Z,100858.66
2023-04-26T01:51:54.779Z,100859.44
2023-04-26T01:54:30.376Z,100862.88
2023-04-26T01:57:12.061Z,100864.50
2023-04-26T01:59:47.158Z,100865.28
2023-04-26T02:02:20.613Z,100862.56
2023-04-26T02:04:48.804Z,100865.97
2023-04-26T02:07:20.442Z,100874.59
2023-04-26T02:09:48.582Z,100871.88
2023-04-26T02:12:17.613Z,100875.34
2023-04-26T02:14:45.323Z,100861.28
2023-04-26T02:17:14.025Z,100868.19
2023-04-26T02:19:45.284Z,100878.63
2023-04-26T02:22:13.810Z,100865.47
2023-04-26T02:24:42.670Z,100861.91
2023-04-26T02:27:10.797Z,100868.81
2023-04-26T02:29:43.625Z,100874.00
2023-04-26T02:32:13.171Z,100872.25
2023-04-26T02:34:43.137Z,100866.03
2023-04-26T02:37:17.246Z,100865.97
2023-04-26T02:39:48.846Z,100868.50
2023-04-26T02:42:17.464Z,100864.03
2023-04-26T02:44:47.646Z,100866.59
2023-04-26T02:47:15.380Z,100858.63
2023-04-26T02:49:43.098Z,100871.72
2023-04-26T02:52:12.209Z,100862.09
2023-04-26T02:54:40.549Z,100867.28
2023-04-26T02:57:13.481Z,100862.78
2023-04-26T02:59:41.637Z,100878.47
2023-04-26T03:02:15.004Z,100869.66
2023-04-26T03:04:42.762Z,100868.78
2023-04-26T03:07:13.452Z,100869.59
2023-04-26T03:09:41.300Z,100865.16
2023-04-26T03:12:12.879Z,100866.94
2023-04-26T03:14:42.464Z,100861.72
2023-04-26T03:17:12.000Z,100867.75
2023-04-26T03:19:39.647Z,100874.72
2023-04-26T03:22:07.612Z,100865.91
2023-04-26T03:24:35.524Z,100868.50
2023-04-26T03:27:03.186Z,100869.31
2023-04-26T03:29:30.993Z,100860.66
2023-04-26T03:31:58.667Z,100859.72
2023-04-26T03:34:28.364Z,100872.75
2023-04-26T03:36:57.368Z,100871.88
2023-04-26T03:39:25.340Z,100877.94
2023-04-26T03:41:53.610Z,100870.06
2023-04-26T03:44:21.303Z,100866.53
2023-04-26T03:46:49.565Z,100869.94
2023-04-26T03:49:21.162Z,100874.31
2023-04-26T03:51:55.703Z,100867.25
2023-04-26T03:54:23.837Z,100868.19
2023-04-26T03:56:53.548Z,100867.31
2023-04-26T03:59:21.858Z,100871.63
2023-04-26T04:01:50.882Z,100879.53
2023-04-26T04:04:19.023Z,100869.94
2023-04-26T04:06:47.650Z,100871.75
2023-04-26T04:09:16.831Z,100878.78
2023-04-26T04:11:45.796Z,100878.84
2023-04-26T04:14:15.576Z,100877.09
2023-04-26T04:16:46.678Z,100871.94
2023-04-26T04:19:14.523Z,100878.13
2023-04-26T04:21:43.411Z,100875.50
2023-04-26T04:24:13.126Z,100875.50
2023-04-26T04:26:42.718Z,100881.66
2023-04-26T04:29:10.629Z,100881.72
2023-04-26T04:31:40.105Z,100878.22
2023-04-26T04:34:08.806Z,100884.41
2023-04-26T04:36:40.052Z,100889.72
2023-04-26T04:39:13.467Z,100889.72
2023-04-26T04:41:49.581Z,100891.56
2023-04-26T04:44:22.018Z,100888.97
2023-04-26T04:46:54.857Z,100893.44
2023-04-26T04:49:25.452Z,100900.47
2023-04-26T04:51:53.869Z,100902.25
2023-04-26T04:54:21.783Z,100900.56
2023-04-26T04:56:52.151Z,100904.97
2023-04-26T04:59:20.278Z,100893.69
2023-04-26T05:01:51.356Z,100900.81
2023-04-26T05:04:26.438Z,100892.16
2023-04-26T05:06:54.858Z,100902.69
2023-04-26T05:09:27.574Z,100902.00
2023-04-26T05:11:57.174Z,100904.72
2023-04-26T05:14:24.865Z,100904.00
2023-04-26T05:16:55.229Z,100905.88
2023-04-26T05:19:26.238Z,100913.84
2023-04-26T05:21:54.183Z,100914.84
2023-04-26T05:24:22.150Z,100910.59
2023-04-26T05:26:49.851Z,100923.03
2023-04-26T05:29:54.245Z,100907.41
2023-04-26T05:32:42.969Z,100917.34
2023-04-26T05:35:17.766Z,100918.34
2023-04-26T05:37:45.937Z,100931.66
2023-04-26T05:40:16.927Z,100922.28
2023-04-26T05:42:46.095Z,100925.13
2023-04-26T05:45:15.593Z,100926.22
2023-04-26T05:47:43.815Z,100926.41
2023-04-26T05:50:13.316Z,100938.00
2023-04-26T05:52:41.546Z,100940.91
2023-04-26T05:55:10.339Z,100940.25
2023-04-26T05:57:38.942Z,100947.53
2023-04-26T06:00:12.722Z,100938.19
2023-04-26T06:02:47.094Z,100943.66
2023-04-26T06:05:19.058Z,100943.09
2023-04-26T06:07:47.156Z,100945.13
2023-04-26T06:10:15.004Z,100934.00
2023-04-26T06:12:42.827Z,100940.41
2023-04-26T06:15:12.072Z,100935.53
2023-04-26T06:17:41.655Z,100932.44
2023-04-26T06:20:12.216Z,100943.34
2023-04-26T06:22:41.399Z,100934.25
2023-04-26T06:25:09.807Z,100939.19
2023-04-26T06:27:43.018Z,100931.78
2023-04-26T06:30:11.624Z,100933.06
2023-04-26T06:32:43.551Z,100935.88
2023-04-26T06:35:13.241Z,100942.25
2023-04-26T06:37:41.060Z,100948.63
2023-04-26T06:40:11.226Z,100947.97
2023-04-26T06:42:39.567Z,100949.00
2023-04-26T06:45:46.066Z,100955.31
2023-04-26T06:48:17.316Z,100958.94
2023-04-26T06:50:47.976Z,100955.56
2023-04-26T06:53:20.690Z,100956.69
2023-04-26T06:55:49.539Z,100955.19
2023-04-26T06:58:17.447Z,100967.66
2023-04-26T07:00:45.280Z,100965.22
2023-04-26T07:03:13.197Z,100966.34
2023-04-26T07:05:41.657Z,100969.97
2023-04-26T07:08:11.243Z,100964.00
2023-04-26T07:10:40.450Z,100966.84
2023-04-26T07:13:09.528Z,100960.94
2023-04-26T07:15:37.656Z,100965.34
2023-04-26T07:18:06.160Z,100967.16
2023-04-26T07:20:33.955Z,100962.75
2023-04-26T07:23:01.695Z,100963.66
2023-04-26T07:25:31.446Z,100974.28
2023-04-26T07:27:59.291Z,100970.91
2023-04-26T07:30:27.356Z,100959.66
2023-04-26T07:32:55.159Z,100972.19
2023-04-26T07:35:23.869Z,100964.31
2023-04-26T07:37:51.748Z,100963.56
2023-04-26T07:40:22.736Z,100969.09
2023-04-26T07:42:52.063Z,100971.94
2023-04-26T07:45:20.052Z,100968.50
2023-04-26T07:47:48.057Z,100964.31
2023-04-26T07:50:17.306Z,100969.69
2023-04-26T07:52:45.171Z,100972.47
2023-04-26T07:55:17.554Z,100977.91
2023-04-26T07:57:45.517Z,100971.06
2023-04-26T08:00:16.815Z,100969.56
2023-04-26T08:02:45.981Z,100983.78
2023-04-26T08:05:14.343Z,100983.13
2023-04-26T08:07:43.840Z,100974.56
2023-04-26T08:10:12.268Z,100966.94
2023-04-26T08:12:40.137Z,100974.09
2023-04-26T08:15:09.240Z,100975.84
2023-04-26T08:17:38.601Z,100972.16
2023-04-26T08:20:09.586Z,100978.28
2023-04-26T08:22:37.606Z,100973.03
2023-04-26T08:25:06.566Z,100978.41
2023-04-26T08:27:36.032Z,100973.31
2023-04-26T08:30:05.700Z,100967.41
2023-04-26T08:32:35.700Z,100974.56
2023-04-26T08:35:05.665Z,100976.41
2023-04-26T08:37:33.546Z,100979.84
2023-04-26T08:40:01.814Z,100973.78
2023-04-26T08:42:30.143Z,100969.63
2023-04-26T08:45:02.593Z,100966.31
2023-04-26T08:47:35.076Z,100968.97
2023-04-26T08:50:07.083Z,100974.19
2023-04-26T08:52:36.655Z,100975.19
2023-04-26T08:55:06.782Z,100968.25
2023-04-26T08:57:34.918Z,100975.34
2023-04-26T09:00:05.716Z,100974.69
2023-04-26T09:02:34.524Z,100973.97
2023-04-26T09:05:04.979Z,100971.41
2023-04-26T09:07:34.714Z,100973.13
2023-04-26T09:10:08.155Z,100983.66
2023-04-26T09:12:36.435Z,100980.91
2023-04-26T09:15:05.213Z,100982.63
2023-04-26T09:17:36.712Z,100987.03
2023-04-26T09:20:21.673Z,100982.66
2023-04-26T09:22:50.450Z,100981.75
2023-04-26T09:25:20.172Z,100981.75
2023-04-26T09:27:48.091Z,100984.38
2023-04-26T09:30:18.444Z,100987.91
2023-04-26T09:32:48.991Z,100990.56
2023-04-26T09:35:27.328Z,100984.38
2023-04-26T09:38:00.329Z,100978.28
2023-04-26T09:40:32.197Z,100972.19
2023-04-26T09:43:01.942Z,100974.03
2023-04-26T09:45:31.421Z,100977.59
2023-04-26T09:48:18.441Z,100978.59
2023-04-26T09:50:48.581Z,100974.31
2023-04-26T09:53:31.197Z,100978.81
2023-04-26T09:56:07.677Z,100965.53
2023-04-26T09:58:36.313Z,100969.97
2023-04-26T10:01:04.984Z,100977.91
2023-04-26T10:03:35.185Z,100977.00
2023-04-26T10:06:04.830Z,100982.34
2023-04-26T10:08:33.634Z,100985.91
2023-04-26T10:11:03.394Z,100977.06
2023-04-26T10:13:33.587Z,100981.47
2023-04-26T10:16:02.075Z,100979.66
2023-04-26T10:18:30.531Z,100977.81
2023-04-26T10:21:01.261Z,100991.03
2023-04-26T10:23:30.560Z,100988.31
2023-04-26T10:25:58.287Z,100990.97
2023-04-26T10:29:02.618Z,100998.03
2023-04-26T10:32:05.313Z,100980.41
2023-04-26T10:34:34.630Z,100991.91
2023-04-26T10:37:12.635Z,100990.16
2023-04-26T10:39:43.066Z,100989.28
2023-04-26T10:42:25.477Z,100998.06
2023-04-26T10:44:54.398Z,100997.06
2023-04-26T10:47:30.778Z,100993.50
2023-04-26T10:50:07.297Z,100989.97
2023-04-26T10:52:35.879Z,100994.44
2023-04-26T10:55:06.476Z,100975.97
2023-04-26T10:57:51.608Z,100985.72
2023-04-26T11:00:32.898Z,100972.47
2023-04-26T11:03:05.862Z,100963.75
2023-04-26T11:05:38.784Z,100977.09
2023-04-26T11:08:09.181Z,100977.09
2023-04-26T11:10:42.165Z,100983.28
2023-04-26T11:13:10.333Z,100971.78
2023-04-26T11:15:38.229Z,100978.84
2023-04-26T11:18:06.583Z,100978.81
2023-04-26T11:20:35.497Z,100966.44
2023-04-26T11:23:03.378Z,100978.88
2023-04-26T11:25:31.554Z,100975.34
2023-04-26T11:28:04.546Z,100972.69
2023-04-26T11:30:32.930Z,100980.66
2023-04-26T11:33:01.360Z,100975.34
2023-04-26T11:35:30.923Z,100978.00
2023-04-26T11:38:00.752Z,100972.63
2023-04-26T11:40:29.904Z,100977.94
2023-04-26T11:43:01.689Z,100969.03
2023-04-26T11:45:33.246Z,100969.91
2023-04-26T11:48:02.990Z,100974.38
2023-04-26T11:50:32.827Z,100968.22
2023-04-26T11:53:02.644Z,100965.59
2023-04-26T11:55:32.196Z,100972.69
2023-04-26T11:58:00.697Z,100973.56
2023-04-26T12:00:30.160Z,100980.63
2023-04-26T12:02:58.476Z,100980.59
2023-04-26T12:05:31.233Z,100981.41
2023-04-26T12:08:00.969Z,100990.28
2023-04-26T12:10:30.473Z,100978.78
2023-04-26T12:13:01.128Z,100988.50
2023-04-26T12:15:32.716Z,100988.53
2023-04-26T12:18:02.274Z,100984.16
2023-04-26T12:20:32.322Z,100976.25
2023-04-26T12:23:01.671Z,100980.63
2023-04-26T12:25:30.334Z,100977.03
2023-04-26T12:27:58.564Z,100969.94
2023-04-26T12:30:28.372Z,100976.16
2023-04-26T12:33:16.579Z,100985.06
2023-04-26T12:35:45.191Z,100975.31
2023-04-26T12:38:13.393Z,100973.56
2023-04-26T12:40:41.731Z,100973.56
2023-04-26T12:43:09.862Z,100979.75
2023-04-26T12:45:37.780Z,100979.75
2023-04-26T12:48:07.452Z,100977.09
2023-04-26T12:50:35.555Z,100977.09
2023-04-26T12:53:03.315Z,100974.44
2023-04-26T12:55:32.798Z,100976.22
2023-04-26T12:58:01.193Z,100977.03
2023-04-26T13:00:29.076Z,100974.28
2023-04-26T13:02:57.080Z,100970.75
2023-04-26T13:05:26.866Z,100980.53
2023-04-26T13:07:54.663Z,100976.13
2023-04-26T13:10:22.549Z,100978.78
2023-04-26T13:12:50.845Z,100984.03
2023-04-26T13:15:18.744Z,100978.63
2023-04-26T13:17:47.085Z,100973.31
2023-04-26T13:20:15.303Z,100972.50
2023-04-26T13:22:44.509Z,100975.16
2023-04-26T13:25:13.255Z,100973.31
2023-04-26T13:27:41.146Z,100982.16
2023-04-26T13:30:10.605Z,100967.91
2023-04-26T13:32:38.649Z,100977.66
2023-04-26T13:35:08.236Z,100980.34
2023-04-26T13:37:36.249Z,100983.03
2023-04-26T13:40:06.557Z,100988.31
2023-04-26T13:42:34.491Z,100981.97
2023-04-26T13:45:06.288Z,100989.84
2023-04-26T13:47:34.184Z,100986.09
2023-04-26T13:50:02.142Z,100985.03
2023-04-26T13:52:29.930Z,100981.59
2023-04-26T13:54:57.851Z,100987.09
2023-04-26T13:57:30.495Z,100984.56
2023-04-26T13:59:58.250Z,100980.13
2023-04-26T14:02:26.605Z,100979.25
2023-04-26T14:04:56.056Z,100987.31
2023-04-26T14:07:24.020Z,100984.72
2023-04-26T14:09:53.188Z,100991.88
2023-04-26T14:12:21.020Z,100998.06
2023-04-26T14:14:50.313Z,100994.53
2023-04-26T14:17:18.162Z,100984.66
2023-04-26T14:19:46.020Z,100992.44
2023-04-26T14:22:17.461Z,100984.28
2023-04-26T14:24:45.349Z,100982.25
2023-04-26T14:27:13.134Z,100975.00
2023-04-26T14:29:41.186Z,100974.78
2023-04-26T14:32:10.366Z,100977.34
2023-04-26T14:34:39.259Z,100975.50
2023-04-26T14:37:07.699Z,100973.69
2023-04-26T14:39:35.863Z,100988.75
2023-04-26T14:42:04.387Z,100986.06
2023-04-26T14:44:32.164Z,100989.72
2023-04-26T14:47:00.051Z,100983.53
2023-04-26T14:49:29.520Z,100979.75
2023-04-26T14:51:57.208Z,100988.72
2023-04-26T14:54:25.164Z,100979.25
2023-04-26T14:56:53.649Z,100984.09
2023-04-26T14:59:21.890Z,100983.34
2023-04-26T15:01:50.378Z,100983.47
2023-04-26T15:04:18.263Z,100979.94
2023-04-26T15:06:47.419Z,100983.56
2023-04-26T15:09:15.443Z,100981.88
2023-04-26T15:11:43.297Z,100987.31
2023-04-26T15:14:11.013Z,100981.19
2023-04-26T15:16:38.820Z,100988.34
2023-04-26T15:19:07.543Z,100988.44
2023-04-26T15:21:35.385Z,100992.00
2023-04-26T15:24:04.702Z,100989.34
2023-04-26T15:26:32.835Z,100992.91
2023-04-26T15:29:00.782Z,100992.03
2023-04-26T15:31:28.744Z,100992.09
2023-04-26T15:33:58.006Z,100988.56
2023-04-26T15:36:26.010Z,100980.59
2023-04-26T15:38:53.756Z,100982.38
2023-04-26T15:41:23.169Z,100993.06
2023-04-26T15:43:54.489Z,100991.28
2023-04-26T15:46:22.809Z,100996.59
2023-04-26T15:48:51.532Z,100996.59
2023-04-26T15:51:19.264Z,100995.69
2023-04-26T15:53:49.110Z,101003.69
2023-04-26T15:56:20.344Z,100998.38
2023-04-26T15:58:49.696Z,101001.03
2023-04-26T16:01:17.874Z,100999.28
2023-04-26T16:03:47.616Z,100997.50
2023-04-26T16:06:16.165Z,101004.56
2023-04-26T16:08:44.901Z,101001.03
2023-04-26T16:11:12.636Z,101009.91
2023-04-26T16:13:40.460Z,101001.03
2023-04-26T16:16:10.842Z,101000.16
2023-04-26T16:18:40.279Z,101005.47
2023-04-26T16:21:09.718Z,100994.81
2023-04-26T16:23:38.606Z,101006.31
2023-04-26T16:26:07.005Z,100999.25
2023-04-26T16:28:34.842Z,100991.25
2023-04-26T16:31:02.728Z,100993.91
2023-04-26T16:33:31.997Z,100988.59
2023-04-26T16:35:59.835Z,100992.97
2023-04-26T16:38:27.605Z,100985.84
2023-04-26T16:40:58.521Z,100995.56
2023-04-26T16:43:27.009Z,100986.72
2023-04-26T16:45:59.221Z,100983.16
2023-04-26T16:48:27.257Z,100990.19
2023-04-26T16:50:57.645Z,100994.59
2023-04-26T16:53:26.003Z,100991.03
2023-04-26T16:55:53.794Z,100991.94
2023-04-26T16:58:21.674Z,100988.38
2023-04-26T17:00:49.875Z,100995.44
2023-04-26T17:03:18.421Z,100992.78
2023-04-26T17:05:48.019Z,100995.41
2023-04-26T17:08:17.931Z,100991.84
2023-04-26T17:10:46.890Z,100991.84
2023-04-26T17:13:14.924Z,100995.38
2023-04-26T17:15:43.390Z,100996.28
2023-04-26T17:18:11.910Z,100998.88
2023-04-26T17:20:39.915Z,101002.41
2023-04-26T17:23:08.697Z,100994.41
2023-04-26T17:25:37.844Z,100998.81
2023-04-26T17:28:05.931Z,100996.13
2023-04-26T17:30:33.704Z,101001.38
2023-04-26T17:33:01.557Z,101000.47
2023-04-26T17:35:29.472Z,101016.34
2023-04-26T17:37:57.432Z,101009.25
2023-04-26T17:40:25.498Z,101010.97
2023-04-26T17:42:54.672Z,101012.69
2023-04-26T17:45:22.684Z,101008.25
2023-04-26T17:47:50.715Z,101023.25
2023-04-26T17:50:21.085Z,101014.38
2023-04-26T17:52:49.032Z,101009.91
2023-04-26T17:55:16.997Z,101014.28
2023-04-26T17:57:44.939Z,101019.53
2023-04-26T18:00:15.728Z,101009.78
2023-04-26T18:02:44.068Z,101023.88
2023-04-26T18:05:12.519Z,101016.78
2023-04-26T18:07:40.367Z,101026.44
2023-04-26T18:10:09.199Z,101030.75
2023-04-26T18:12:37.112Z,101024.53
2023-04-26T18:15:06.596Z,101032.38
2023-04-26T18:17:36.323Z,101027.06
2023-04-26T18:20:04.768Z,101027.78
2023-04-26T18:22:32.991Z,101025.09
2023-04-26T18:25:00.757Z,101036.50
2023-04-26T18:27:32.237Z,101035.56
2023-04-26T18:30:00.301Z,101039.91
2023-04-26T18:32:28.190Z,101044.25
2023-04-26T18:34:57.334Z,101048.59
2023-04-26T18:37:25.685Z,101048.53
2023-04-26T18:39:53.462Z,101051.13
2023-04-26T18:42:21.441Z,101053.72
2023-04-26T18:44:49.213Z,101063.34
2023-04-26T18:47:17.069Z,101061.47
2023-04-26T18:49:44.864Z,101064.03
2023-04-26T18:52:14.003Z,101064.81
2023-04-26T18:54:42.129Z,101071.78
2023-04-26T18:57:10.705Z,101071.72
2023-04-26T18:59:38.718Z,101070.75
2023-04-26T19:02:06.581Z,101069.81
2023-04-26T19:04:34.601Z,101068.81
2023-04-26T19:07:02.696Z,101078.41
2023-04-26T19:09:42.803Z,101083.59
2023-04-26T19:12:18.637Z,101087.91
2023-04-26T19:14:46.520Z,101087.84
2023-04-26T19:17:14.511Z,101084.28
2023-04-26T19:19:42.370Z,101093.06
2023-04-26T19:22:10.234Z,101098.31
2023-04-26T19:24:39.367Z,101102.69
2023-04-26T19:27:07.233Z,101097.38
2023-04-26T19:29:35.092Z,101093.78
2023-04-26T19:32:06.770Z,101093.75
2023-04-26T19:34:34.967Z,101093.69
2023-04-26T19:37:03.501Z,101094.53
2023-04-26T19:39:31.389Z,101098.91
2023-04-26T19:42:01.670Z,101095.38
2023-04-26T19:44:29.742Z,101096.19
2023-04-26T19:46:57.679Z,101101.47
2023-04-26T19:49:27.784Z,101105.88
2023-04-26T19:51:56.992Z,101109.41
2023-04-26T19:54:25.127Z,101116.44
2023-04-26T19:56:52.876Z,101120.84
2023-04-26T19:59:22.002Z,101110.25
2023-04-26T20:01:51.007Z,101112.00
2023-04-26T20:04:21.373Z,101108.47
2023-04-26T20:06:49.430Z,101104.91
2023-04-26T20:09:17.312Z,101113.66
2023-04-26T20:11:45.126Z,101110.16
2023-04-26T20:14:12.935Z,101111.03
2023-04-26T20:16:42.082Z,101111.88
2023-04-26T20:19:10.351Z,101111.88
2023-04-26T20:21:38.384Z,101106.56
2023-04-26T20:24:07.746Z,101111.84
2023-04-26T20:26:35.763Z,101115.34
2023-04-26T20:29:03.506Z,101109.13
2023-04-26T20:31:31.467Z,101107.34
2023-04-26T20:34:00.915Z,101102.03
2023-04-26T20:36:28.835Z,101106.44
2023-04-26T20:38:56.663Z,101112.56
2023-04-26T20:41:24.460Z,101113.44
2023-04-26T20:43:53.065Z,101111.69
2023-04-26T20:46:21.011Z,101109.03
2023-04-26T20:48:49.087Z,101103.72
2023-04-26T20:51:18.157Z,101101.09
2023-04-26T20:53:46.014Z,101102.81
2023-04-26T20:56:13.886Z,101107.16
2023-04-26T20:58:41.917Z,101112.41
2023-04-26T21:01:10.994Z,101115.03
2023-04-26T21:03:39.351Z,101106.22
2023-04-26T21:06:07.315Z,101119.41
2023-04-26T21:08:37.059Z,101116.72
2023-04-26T21:11:05.066Z,101122.03
2023-04-26T21:13:32.886Z,101110.59
2023-04-26T21:16:02.358Z,101115.00
2023-04-26T21:18:30.391Z,101116.69
2023-04-26T21:20:58.226Z,101118.50
2023-04-26T21:23:26.023Z,101114.06
2023-04-26T21:25:55.216Z,101115.78
2023-04-26T21:28:23.125Z,101114.91
2023-04-26T21:30:50.913Z,101111.34
2023-04-26T21:33:18.772Z,101124.56
2023-04-26T21:35:46.675Z,101121.00
2023-04-26T21:38:14.427Z,101120.97
2023-04-26T21:40:42.238Z,101122.69
2023-04-26T21:43:11.413Z,101121.78
2023-04-26T21:45:39.171Z,101119.03
2023-04-26T21:48:07.033Z,101132.19
2023-04-26T21:50:34.847Z,101133.94
2023-04-26T21:53:03.131Z,101137.47
2023-04-26T21:55:30.876Z,101125.97
2023-04-26T21:57:58.712Z,101132.06
2023-04-26T22:00:28.203Z,101134.63
2023-04-26T22:02:56.186Z,101138.97
2023-04-26T22:05:25.954Z,101132.81
2023-04-26T22:07:53.903Z,101140.69
2023-04-26T22:10:22.257Z,101138.84
2023-04-26T22:12:50.134Z,101136.94
2023-04-26T22:15:18.019Z,101141.22
2023-04-26T22:17:47.193Z,101145.59
2023-04-26T22:20:15.625Z,101150.84
2023-04-26T22:22:43.414Z,101141.97
2023-04-26T22:25:11.510Z,101151.66
2023-04-26T22:27:39.453Z,101154.25
2023-04-26T22:30:23.149Z,101157.72
2023-04-26T22:32:55.511Z,101155.94
2023-04-26T22:35:24.039Z,101162.03
2023-04-26T22:37:52.338Z,101162.88
2023-04-26T22:40:20.745Z,101154.13
2023-04-26T22:42:48.781Z,101158.47
2023-04-26T22:45:16.774Z,101154.09
2023-04-26T22:47:44.566Z,101154.09
2023-04-26T22:50:14.039Z,101156.72
2023-04-26T22:52:41.813Z,101154.94
2023-04-26T22:55:10.545Z,101159.31
2023-04-26T22:57:38.586Z,101153.16
2023-04-26T23:00:09.607Z,101157.53
2023-04-26T23:02:37.526Z,101153.97
2023-04-26T23:05:09.533Z,101152.25
2023-04-26T23:07:39.184Z,101155.72
2023-04-26T23:10:08.363Z,101154.84
2023-04-26T23:12:37.152Z,101160.13
2023-04-26T23:15:06.245Z,101147.66
2023-04-26T23:17:34.807Z,101159.09
2023-04-26T23:20:08.452Z,101157.28
2023-04-26T23:22:36.287Z,101161.69
2023-04-26T23:25:05.902Z,101158.13
2023-04-26T23:27:33.825Z,101154.50
2023-04-26T23:30:01.815Z,101161.53
2023-04-26T23:32:29.631Z,101158.00
2023-04-26T23:34:59.702Z,101171.25
2023-04-26T23:37:27.517Z,101158.00
2023-04-26T23:39:55.753Z,101169.31
2023-04-26T23:42:24.895Z,101165.75
2023-04-26T23:44:53.294Z,101163.97
2023-04-26T23:47:21.259Z,101163.91
2023-04-26T23:49:49.075Z,101168.22
2023-04-26T23:52:16.928Z,101168.19
2023-04-26T23:54:44.768Z,101165.50
2023-04-26T23:57:12.776Z,101174.25
2023-04-26T23:59:41.945Z,101159.31
